createdAt,value
2023-01-13T00:02:13.701Z,73.67
2023-01-13T00:07:15.269Z,73.62
2023-01-13T00:12:16.850Z,73.36
2023-01-13T00:17:18.410Z,74.28
2023-01-13T00:22:19.981Z,74.57
2023-01-13T00:27:23.974Z,74.92
2023-01-13T00:32:26.203Z,75.16
2023-01-13T00:37:27.807Z,75.23
2023-01-13T00:42:48.130Z,75.21
2023-01-13T00:47:49.677Z,75.82
2023-01-13T00:52:51.152Z,75.69
2023-01-13T00:57:52.727Z,76.62
2023-01-13T01:02:54.291Z,76.51
2023-01-13T01:07:55.891Z,77.35
2023-01-13T01:12:57.362Z,76.80
2023-01-13T01:17:58.936Z,76.50
2023-01-13T01:23:00.965Z,75.83
2023-01-13T01:28:02.512Z,76.16
2023-01-13T01:33:05.360Z,74.39
2023-01-13T01:38:06.991Z,75.41
2023-01-13T01:43:34.067Z,75.07
2023-01-13T01:48:42.223Z,73.95
2023-01-13T01:53:44.141Z,74.06
2023-01-13T01:58:49.949Z,73.71
2023-01-13T02:03:59.393Z,73.86
2023-01-13T02:09:01.115Z,74.21
2023-01-13T02:14:02.683Z,72.58
2023-01-13T02:19:42.758Z,73.32
2023-01-13T02:25:11.632Z,72.89
2023-01-13T02:30:57.450Z,73.00
2023-01-13T02:36:02.536Z,72.77
2023-01-13T02:41:31.648Z,73.20
2023-01-13T02:46:39.808Z,73.35
2023-01-13T02:51:44.452Z,72.55
2023-01-13T02:56:49.477Z,72.91
2023-01-13T03:01:51.208Z,73.36
2023-01-13T03:07:12.792Z,72.74
2023-01-13T03:12:34.120Z,73.16
2023-01-13T03:17:48.349Z,73.20
2023-01-13T03:23:13.249Z,73.53
2023-01-13T03:28:32.856Z,73.64
2023-01-13T03:33:40.708Z,73.76
2023-01-13T03:38:56.612Z,73.85
2023-01-13T03:44:20.054Z,73.43
2023-01-13T03:49:26.068Z,73.08
2023-01-13T03:54:32.020Z,73.34
2023-01-13T03:59:38.537Z,74.00
2023-01-13T04:04:49.687Z,73.43
2023-01-13T04:09:54.368Z,74.20
2023-01-13T04:14:56.284Z,73.73
2023-01-13T04:19:57.707Z,73.77
2023-01-13T04:24:59.145Z,73.49
2023-01-13T04:30:00.748Z,74.01
2023-01-13T04:35:02.237Z,73.38
2023-01-13T04:40:04.057Z,73.60
2023-01-13T04:45:05.938Z,72.80
2023-01-13T04:50:08.270Z,73.09
2023-01-13T04:55:10.359Z,73.10
2023-01-13T05:00:14.779Z,74.24
2023-01-13T05:05:16.883Z,73.82
2023-01-13T05:10:18.320Z,74.15
2023-01-13T05:15:38.534Z,73.59
2023-01-13T05:20:40.008Z,72.91
2023-01-13T05:25:44.396Z,73.06
2023-01-13T05:30:49.123Z,73.02
2023-01-13T05:35:50.713Z,73.13
2023-01-13T05:41:10.843Z,72.93
2023-01-13T05:46:12.384Z,73.39
2023-01-13T05:51:13.873Z,72.59
2023-01-13T05:56:17.313Z,72.88
2023-01-13T06:01:18.779Z,73.21
2023-01-13T06:06:20.218Z,73.97
2023-01-13T06:11:21.688Z,73.59
2023-01-13T06:16:23.178Z,73.32
2023-01-13T06:21:24.623Z,73.13
2023-01-13T06:26:29.926Z,72.64
2023-01-13T06:31:33.553Z,72.82
2023-01-13T06:36:42.388Z,72.46
2023-01-13T06:42:02.248Z,72.28
2023-01-13T06:47:04.008Z,72.12
2023-01-13T06:52:05.643Z,72.25
2023-01-13T06:57:06.988Z,71.85
2023-01-13T07:02:08.504Z,71.84
2023-01-13T07:07:10.079Z,71.23
2023-01-13T07:12:12.109Z,71.52
2023-01-13T07:17:13.552Z,72.08
2023-01-13T07:22:14.988Z,72.15
2023-01-13T07:27:16.495Z,72.17
2023-01-13T07:32:17.947Z,72.49
2023-01-13T07:37:19.381Z,72.59
2023-01-13T07:42:39.592Z,71.49
2023-01-13T07:47:41.045Z,71.63
2023-01-13T07:52:42.471Z,70.74
2023-01-13T07:57:43.933Z,71.72
2023-01-13T08:02:45.421Z,71.72
2023-01-13T08:07:46.828Z,71.35
2023-01-13T08:13:07.195Z,71.79
2023-01-13T08:18:08.561Z,72.55
2023-01-13T08:23:09.995Z,72.33
2023-01-13T08:28:12.869Z,72.31
2023-01-13T08:33:14.322Z,72.51
2023-01-13T08:38:15.782Z,73.30
2023-01-13T08:43:17.277Z,72.92
2023-01-13T08:48:18.712Z,73.34
2023-01-13T08:53:20.552Z,72.79
2023-01-13T08:58:22.275Z,73.21
2023-01-13T09:03:23.713Z,72.45
2023-01-13T09:08:25.331Z,76.37
2023-01-13T09:13:26.787Z,77.93
2023-01-13T09:18:28.225Z,78.73
2023-01-13T09:23:29.647Z,79.67
2023-01-13T09:28:32.537Z,79.79
2023-01-13T09:33:52.605Z,80.86
2023-01-13T09:38:54.045Z,81.87
2023-01-13T09:44:01.172Z,81.84
2023-01-13T09:49:03.741Z,82.72
2023-01-13T09:54:28.555Z,83.21
2023-01-13T09:59:36.219Z,82.96
2023-01-13T10:04:37.734Z,82.15
2023-01-13T10:09:52.393Z,82.05
2023-01-13T10:14:57.152Z,82.13
2023-01-13T10:20:18.495Z,82.70
2023-01-13T10:25:42.521Z,82.20
2023-01-13T10:30:46.074Z,81.83
2023-01-13T10:36:01.158Z,82.38
2023-01-13T10:41:04.282Z,82.45
2023-01-13T10:46:12.041Z,81.47
2023-01-13T10:51:27.165Z,81.15
2023-01-13T10:56:31.973Z,80.70
2023-01-13T11:01:33.455Z,80.12
2023-01-13T11:06:35.732Z,80.58
2023-01-13T11:11:41.915Z,80.36
2023-01-13T11:16:53.520Z,80.07
2023-01-13T11:22:07.023Z,77.81
2023-01-13T11:27:08.433Z,77.63
2023-01-13T11:32:18.434Z,78.04
2023-01-13T11:37:24.957Z,76.80
2023-01-13T11:42:41.640Z,76.63
2023-01-13T11:47:46.799Z,77.07
2023-01-13T11:53:09.705Z,76.54
2023-01-13T11:58:38.749Z,76.83
2023-01-13T12:04:06.307Z,75.93
2023-01-13T12:09:24.323Z,74.88
2023-01-13T12:14:50.685Z,74.92
2023-01-13T12:19:52.114Z,74.57
2023-01-13T12:25:05.956Z,72.85
2023-01-13T12:30:22.163Z,72.73
2023-01-13T12:35:39.814Z,73.00
2023-01-13T12:41:09.577Z,70.69
2023-01-13T12:46:23.185Z,71.29
2023-01-13T12:51:28.587Z,71.55
2023-01-13T12:56:39.455Z,69.91
2023-01-13T13:01:41.036Z,70.31
2023-01-13T13:06:52.683Z,70.85
2023-01-13T13:12:03.299Z,70.56
2023-01-13T13:17:05.415Z,69.94
2023-01-13T13:22:12.863Z,70.31
2023-01-13T13:27:33.439Z,70.67
2023-01-13T13:33:05.271Z,70.41
2023-01-13T13:38:39.664Z,69.96
2023-01-13T13:44:02.167Z,70.11
2023-01-13T13:49:03.626Z,70.41
2023-01-13T13:54:05.315Z,70.28
2023-01-13T13:59:09.012Z,69.74
2023-01-13T14:04:20.822Z,70.59
2023-01-13T14:09:24.397Z,70.46
2023-01-13T14:14:25.914Z,70.16
2023-01-13T14:19:35.330Z,70.87
2023-01-13T14:24:47.495Z,69.08
2023-01-13T14:29:52.222Z,70.78
2023-01-13T14:34:53.670Z,71.29
2023-01-13T14:39:55.430Z,71.09
2023-01-13T14:44:57.709Z,70.67
2023-01-13T14:50:23.411Z,73.14
2023-01-13T14:55:33.966Z,74.89
2023-01-13T15:00:35.738Z,76.25
2023-01-13T15:05:38.293Z,75.97
2023-01-13T15:10:52.593Z,75.94
2023-01-13T15:15:55.635Z,76.83
2023-01-13T15:20:57.100Z,76.54
2023-01-13T15:26:00.181Z,78.46
2023-01-13T15:31:03.557Z,77.14
2023-01-13T15:36:11.671Z,78.54
2023-01-13T15:41:13.957Z,78.12
2023-01-13T15:46:36.244Z,78.27
2023-01-13T15:51:38.811Z,77.49
2023-01-13T15:56:42.033Z,77.67
2023-01-13T16:01:44.108Z,76.12
2023-01-13T16:06:47.329Z,75.04
2023-01-13T16:11:48.778Z,75.07
2023-01-13T16:16:51.714Z,75.12
2023-01-13T16:21:53.256Z,75.20
2023-01-13T16:26:54.679Z,75.05
2023-01-13T16:31:56.130Z,75.64
2023-01-13T16:36:57.787Z,75.22
2023-01-13T16:41:59.212Z,75.93
2023-01-13T16:47:00.646Z,75.95
2023-01-13T16:52:02.082Z,75.51
2023-01-13T16:57:03.630Z,74.81
2023-01-13T17:02:05.129Z,75.38
2023-01-13T17:07:11.883Z,75.15
2023-01-13T17:12:13.372Z,75.13
2023-01-13T17:17:24.700Z,74.69
2023-01-13T17:22:26.130Z,73.55
2023-01-13T17:27:27.561Z,72.71
2023-01-13T17:32:29.057Z,72.63
2023-01-13T17:37:30.476Z,71.65
2023-01-13T17:42:32.056Z,72.80
2023-01-13T17:47:33.493Z,71.62
2023-01-13T17:52:35.069Z,71.16
2023-01-13T17:57:36.514Z,71.34
2023-01-13T18:02:38.176Z,72.99
2023-01-13T18:07:39.677Z,73.33
2023-01-13T18:12:41.134Z,73.52
2023-01-13T18:17:42.578Z,74.05
2023-01-13T18:23:02.562Z,74.19
2023-01-13T18:28:04.710Z,73.72
2023-01-13T18:33:06.145Z,74.35
2023-01-13T18:38:08.385Z,74.70
2023-01-13T18:43:09.921Z,74.92
2023-01-13T18:48:11.686Z,73.87
2023-01-13T18:53:13.128Z,72.94
2023-01-13T18:58:14.569Z,73.36
2023-01-13T19:03:29.512Z,72.38
2023-01-13T19:08:33.494Z,73.29
2023-01-13T19:13:35.775Z,72.94
2023-01-13T19:18:37.513Z,74.07
2023-01-13T19:23:39.667Z,73.39
2023-01-13T19:28:41.127Z,72.63
2023-01-13T19:33:43.131Z,71.95
2023-01-13T19:38:44.560Z,71.59
2023-01-13T19:44:04.795Z,72.71
2023-01-13T19:49:06.421Z,73.23
2023-01-13T19:54:07.841Z,72.58
2023-01-13T19:59:11.085Z,73.23
2023-01-13T20:04:14.363Z,73.19
2023-01-13T20:09:15.787Z,73.57
2023-01-13T20:14:17.205Z,73.18
2023-01-13T20:19:18.634Z,72.09
2023-01-13T20:24:20.054Z,72.66
2023-01-13T20:29:22.393Z,73.24
2023-01-13T20:34:24.570Z,73.24
2023-01-13T20:39:26.635Z,73.75
2023-01-13T20:44:28.882Z,73.35
2023-01-13T20:49:30.931Z,73.83
2023-01-13T20:54:32.347Z,73.75
2023-01-13T20:59:33.827Z,73.95
2023-01-13T21:04:35.262Z,74.25
2023-01-13T21:09:36.721Z,73.88
2023-01-13T21:14:56.830Z,74.02
2023-01-13T21:19:58.449Z,74.14
2023-01-13T21:24:59.880Z,75.13
2023-01-13T21:30:01.311Z,75.36
2023-01-13T21:35:02.802Z,74.54
2023-01-13T21:40:07.791Z,73.70
2023-01-13T21:45:29.045Z,74.55
2023-01-13T21:50:30.602Z,74.78
2023-01-13T21:55:32.755Z,75.02
2023-01-13T22:00:34.293Z,75.01
2023-01-13T22:05:36.164Z,74.29
2023-01-13T22:10:56.925Z,75.31
2023-01-13T22:16:04.306Z,74.82
2023-01-13T22:21:05.980Z,75.88
2023-01-13T22:26:07.952Z,75.04
2023-01-13T22:31:14.985Z,75.28
2023-01-13T22:36:16.528Z,75.74
2023-01-13T22:41:18.499Z,74.71
2023-01-13T22:46:20.037Z,74.77
2023-01-13T22:51:22.792Z,74.71
2023-01-13T22:56:25.546Z,75.41
2023-01-13T23:01:30.201Z,75.14
2023-01-13T23:06:33.562Z,75.04
2023-01-13T23:11:35.358Z,75.76
2023-01-13T23:16:38.191Z,75.23
2023-01-13T23:21:40.985Z,75.17
2023-01-13T23:26:42.419Z,76.02
2023-01-13T23:31:43.889Z,76.48
2023-01-13T23:36:45.482Z,76.04
2023-01-13T23:41:46.938Z,76.69
2023-01-13T23:46:48.386Z,76.44
2023-01-13T23:51:51.468Z,76.60
2023-01-13T23:56:53.026Z,76.38
